Time;durP1;ratioP1;P1;durP2;ratioP2;P2;SDS_P1;SDS_P2;PMS_P1;PMS_P2;Temp;Humidity;BMP_temperature;BMP_pressure;BME280_temperature;BME280_humidity;BME280_pressure;Samples;Min_cycle;Max_cycle;Signal;HPM_P1;HPM_P2
2022/11/18 00:00:24;;;;;;;3.00;1.80;;;8.30;99.90;;;;;;477226;249;28111;-66
2022/11/18 00:02:25;;;;;;;4.47;1.73;;;8.20;99.90;;;;;;477265;249;28551;-68
2022/11/18 00:04:26;;;;;;;3.67;1.40;;;8.30;99.90;;;;;;477277;249;28500;-66
2022/11/18 00:06:28;;;;;;;4.60;1.70;;;8.20;99.90;;;;;;477267;249;28460;-66
2022/11/18 00:08:29;;;;;;;2.10;1.70;;;8.10;99.90;;;;;;477273;249;28585;-65
2022/11/18 00:10:30;;;;;;;5.43;1.50;;;8.10;99.90;;;;;;476956;249;28569;-65
2022/11/18 00:14:51;;;;;;;2.80;1.60;;;8.10;99.90;;;;;;477280;249;28003;-65
2022/11/18 00:16:52;;;;;;;2.40;1.53;;;8.10;99.90;;;;;;477157;249;28214;-65
2022/11/18 00:18:53;;;;;;;3.37;1.40;;;8.20;99.90;;;;;;477254;249;28069;-65
2022/11/18 00:20:55;;;;;;;2.40;1.57;;;8.20;99.90;;;;;;477286;249;28043;-65
2022/11/18 00:22:56;;;;;;;1.47;1.37;;;8.20;99.90;;;;;;477295;249;27795;-67
2022/11/18 00:24:57;;;;;;;1.60;1.50;;;8.30;99.90;;;;;;477273;249;28401;-65
2022/11/18 00:26:58;;;;;;;1.37;1.33;;;8.30;99.90;;;;;;477254;249;28686;-65
2022/11/18 00:29:00;;;;;;;1.40;1.30;;;8.30;99.90;;;;;;477240;249;29056;-65
2022/11/18 00:31:01;;;;;;;2.77;1.40;;;8.30;99.90;;;;;;477268;249;28569;-65
2022/11/18 00:33:02;;;;;;;3.50;1.63;;;8.40;99.90;;;;;;477277;249;28498;-68
2022/11/18 00:35:03;;;;;;;2.43;1.40;;;8.40;99.90;;;;;;477255;249;28527;-65
2022/11/18 00:37:05;;;;;;;1.77;1.67;;;8.40;99.90;;;;;;477254;249;28111;-67
2022/11/18 00:39:06;;;;;;;1.87;1.40;;;8.40;99.90;;;;;;477234;249;27681;-65
2022/11/18 00:41:07;;;;;;;2.10;1.53;;;8.40;99.90;;;;;;477264;249;27960;-65
2022/11/18 00:43:08;;;;;;;1.50;1.40;;;8.40;99.90;;;;;;477273;249;27852;-68
2022/11/18 00:45:10;;;;;;;2.20;1.70;;;8.40;99.90;;;;;;477227;249;27549;-65
2022/11/18 00:47:11;;;;;;;1.33;1.20;;;8.40;99.90;;;;;;477229;249;28221;-66
2022/11/18 00:49:12;;;;;;;2.53;1.73;;;8.40;99.90;;;;;;477226;249;28046;-65
2022/11/18 00:51:13;;;;;;;3.13;1.90;;;8.40;99.90;;;;;;477233;249;27950;-65
2022/11/18 00:53:15;;;;;;;2.50;1.47;;;8.50;99.90;;;;;;477259;249;28115;-67
2022/11/18 00:55:16;;;;;;;1.70;1.40;;;8.50;99.90;;;;;;477267;249;27593;-65
2022/11/18 00:57:17;;;;;;;3.30;1.87;;;8.50;99.90;;;;;;477237;249;28015;-66
2022/11/18 00:59:18;;;;;;;1.93;1.80;;;8.50;99.90;;;;;;477246;249;28058;-65
2022/11/18 01:01:20;;;;;;;1.93;1.50;;;8.50;99.90;;;;;;477246;249;28040;-65
2022/11/18 01:03:21;;;;;;;2.50;1.97;;;8.50;99.90;;;;;;477267;249;28161;-67
2022/11/18 01:05:22;;;;;;;2.23;1.50;;;8.50;99.90;;;;;;477249;249;27945;-66
2022/11/18 01:07:23;;;;;;;3.37;1.50;;;8.50;99.90;;;;;;477232;249;28005;-66
2022/11/18 01:09:25;;;;;;;2.17;1.43;;;8.50;99.90;;;;;;477223;249;28484;-66
2022/11/18 01:13:46;;;;;;;2.00;1.20;;;8.50;99.90;;;;;;477245;249;27941;-68
2022/11/18 01:15:47;;;;;;;2.67;1.47;;;8.50;99.90;;;;;;477226;249;28030;-65
2022/11/18 01:17:48;;;;;;;1.70;1.60;;;8.50;99.90;;;;;;477263;249;28079;-66
2022/11/18 01:19:49;;;;;;;4.53;1.60;;;8.60;99.90;;;;;;477286;249;28116;-69
2022/11/18 01:21:51;;;;;;;2.27;1.83;;;8.60;99.90;;;;;;477230;249;28027;-65
2022/11/18 01:23:52;;;;;;;3.13;2.03;;;8.60;99.90;;;;;;477226;249;28026;-66
2022/11/18 01:25:53;;;;;;;3.83;1.83;;;8.60;99.90;;;;;;477226;249;27859;-65
2022/11/18 01:27:54;;;;;;;2.87;1.60;;;8.60;99.90;;;;;;477280;249;28018;-65
2022/11/18 01:29:56;;;;;;;2.17;1.57;;;8.60;99.90;;;;;;477269;249;27638;-67
2022/11/18 01:31:57;;;;;;;1.60;1.50;;;8.60;99.90;;;;;;477097;249;27806;-65
2022/11/18 01:33:58;;;;;;;1.93;1.70;;;8.60;99.90;;;;;;477253;249;28169;-66
2022/11/18 01:35:59;;;;;;;1.70;1.60;;;8.60;99.90;;;;;;477232;249;28450;-65
2022/11/18 01:38:01;;;;;;;2.70;1.70;;;8.60;99.90;;;;;;477264;249;28138;-65
2022/11/18 01:40:02;;;;;;;1.57;1.47;;;8.60;99.90;;;;;;477264;249;28015;-67
2022/11/18 01:42:03;;;;;;;2.10;1.50;;;8.60;99.90;;;;;;477253;249;27868;-66
2022/11/18 01:44:04;;;;;;;2.00;1.80;;;8.60;99.90;;;;;;477229;249;27607;-66
2022/11/18 01:46:06;;;;;;;2.03;1.60;;;8.60;99.90;;;;;;477235;249;27996;-65
2022/11/18 01:48:07;;;;;;;2.20;1.60;;;8.60;99.90;;;;;;477238;249;28084;-66
2022/11/18 01:50:08;;;;;;;9.00;1.80;;;8.60;99.90;;;;;;477282;249;28218;-68
2022/11/18 01:52:09;;;;;;;1.57;1.47;;;8.60;99.90;;;;;;477271;249;28062;-65
2022/11/18 01:54:11;;;;;;;2.93;1.70;;;8.60;99.90;;;;;;477256;249;27724;-66
2022/11/18 01:56:12;;;;;;;1.50;1.40;;;8.60;99.90;;;;;;477226;249;28095;-65
2022/11/18 01:58:13;;;;;;;4.57;1.40;;;8.60;99.90;;;;;;477243;249;27947;-66
2022/11/18 02:00:14;;;;;;;1.67;1.57;;;8.60;99.90;;;;;;477251;249;28104;-68
2022/11/18 02:02:16;;;;;;;1.97;1.77;;;8.60;99.90;;;;;;477229;249;28230;-66
2022/11/18 02:04:17;;;;;;;2.33;1.33;;;8.60;99.90;;;;;;477234;249;27971;-65
2022/11/18 02:06:18;;;;;;;2.20;1.50;;;8.60;99.90;;;;;;477219;249;28025;-66
2022/11/18 02:08:19;;;;;;;3.77;2.00;;;8.50;99.90;;;;;;477261;249;27729;-66
2022/11/18 02:10:21;;;;;;;6.70;2.17;;;8.50;99.90;;;;;;477278;249;28005;-67
2022/11/18 02:12:22;;;;;;;1.70;1.60;;;8.60;99.90;;;;;;477258;249;28071;-66
2022/11/18 02:14:23;;;;;;;1.63;1.50;;;8.50;99.90;;;;;;477258;249;27776;-65
2022/11/18 02:16:25;;;;;;;8.60;2.27;;;8.60;99.90;;;;;;477256;249;27628;-65
2022/11/18 02:18:26;;;;;;;2.03;1.83;;;8.60;99.90;;;;;;477319;249;28089;-65
2022/11/18 02:20:27;;;;;;;1.97;1.87;;;8.60;99.90;;;;;;477299;249;28034;-67
2022/11/18 02:22:28;;;;;;;3.17;1.63;;;8.60;99.90;;;;;;477280;249;27984;-66
2022/11/18 02:24:30;;;;;;;3.03;1.87;;;8.60;99.90;;;;;;477259;249;28218;-65
2022/11/18 02:26:31;;;;;;;3.63;1.97;;;8.60;99.90;;;;;;477248;249;27983;-65
2022/11/18 02:28:32;;;;;;;2.90;2.00;;;8.60;99.90;;;;;;477293;249;27845;-66
2022/11/18 02:30:33;;;;;;;1.93;1.60;;;8.60;99.90;;;;;;477275;249;28013;-67
2022/11/18 02:32:35;;;;;;;1.83;1.73;;;8.60;99.90;;;;;;477277;249;28043;-66
2022/11/18 02:34:36;;;;;;;4.43;2.07;;;8.60;99.90;;;;;;477252;249;28180;-66
2022/11/18 02:36:37;;;;;;;2.23;1.50;;;8.60;99.90;;;;;;477239;249;27965;-65
2022/11/18 02:38:38;;;;;;;2.33;1.60;;;8.60;99.90;;;;;;477286;249;27525;-65
2022/11/18 02:40:40;;;;;;;3.00;2.13;;;8.60;99.90;;;;;;477291;249;27925;-67
2022/11/18 02:42:41;;;;;;;3.70;2.10;;;8.60;99.90;;;;;;477239;249;28042;-65
2022/11/18 02:44:42;;;;;;;2.30;2.07;;;8.60;99.90;;;;;;477198;249;28035;-65
2022/11/18 02:46:43;;;;;;;2.27;2.07;;;8.60;99.90;;;;;;477253;249;27876;-65
2022/11/18 02:48:45;;;;;;;2.27;2.17;;;8.60;99.90;;;;;;477291;249;27974;-65
2022/11/18 02:50:46;;;;;;;3.60;2.20;;;8.60;99.90;;;;;;477279;249;28006;-68
2022/11/18 02:52:47;;;;;;;2.10;1.77;;;8.60;99.90;;;;;;477264;249;27968;-65
2022/11/18 02:54:48;;;;;;;6.20;2.20;;;8.60;99.90;;;;;;477236;249;28075;-65
2022/11/18 02:56:50;;;;;;;2.60;2.40;;;8.70;99.90;;;;;;477256;249;27970;-68
2022/11/18 02:58:51;;;;;;;4.20;2.90;;;8.60;99.90;;;;;;477253;249;28165;-66
2022/11/18 03:00:52;;;;;;;5.20;3.10;;;8.60;99.90;;;;;;477239;249;27974;-67
2022/11/18 03:02:53;;;;;;;5.47;3.77;;;8.60;99.90;;;;;;477241;249;27990;-65
2022/11/18 03:04:55;;;;;;;5.40;2.90;;;8.60;99.90;;;;;;477248;249;28145;-65
2022/11/18 03:06:56;;;;;;;2.90;2.60;;;8.50;99.90;;;;;;477271;249;28095;-66
2022/11/18 03:08:57;;;;;;;3.50;3.13;;;8.50;99.90;;;;;;477264;249;28017;-66
2022/11/18 03:10:58;;;;;;;2.70;2.50;;;8.40;99.90;;;;;;477287;249;28019;-67
2022/11/18 03:13:00;;;;;;;2.43;2.23;;;8.40;99.90;;;;;;477257;249;27990;-66
2022/11/18 03:15:01;;;;;;;3.53;2.13;;;8.30;99.90;;;;;;477263;249;28182;-66
2022/11/18 03:17:02;;;;;;;2.20;2.10;;;8.30;99.90;;;;;;477304;249;28723;-66
2022/11/18 03:19:03;;;;;;;1.63;1.53;;;8.30;99.90;;;;;;477317;249;27502;-65
2022/11/18 03:21:05;;;;;;;1.53;1.43;;;8.10;99.90;;;;;;477285;249;28076;-66
2022/11/18 03:23:06;;;;;;;2.33;1.57;;;8.00;99.90;;;;;;477281;249;27951;-65
2022/11/18 03:25:07;;;;;;;1.30;1.20;;;8.00;99.90;;;;;;477254;249;28115;-66
2022/11/18 03:27:10;;;;;;;1.30;1.20;;;7.90;99.90;;;;;;477258;249;28111;-68
2022/11/18 03:29:10;;;;;;;1.40;1.30;;;8.00;99.90;;;;;;477147;249;28091;-65
2022/11/18 03:31:11;;;;;;;1.37;1.27;;;7.90;99.90;;;;;;477213;249;27862;-66
2022/11/18 03:33:12;;;;;;;1.30;1.20;;;7.90;99.90;;;;;;477189;249;27866;-65
2022/11/18 03:35:13;;;;;;;1.07;1.07;;;7.90;99.90;;;;;;477250;249;28005;-66
2022/11/18 03:37:15;;;;;;;1.53;1.23;;;7.80;99.90;;;;;;477278;249;27981;-69
2022/11/18 03:39:16;;;;;;;1.17;1.17;;;7.80;99.90;;;;;;477270;249;28268;-65
2022/11/18 03:41:17;;;;;;;2.00;1.30;;;7.80;99.90;;;;;;477192;249;28594;-66
2022/11/18 03:43:19;;;;;;;1.60;1.30;;;7.80;99.90;;;;;;477245;249;28061;-65
2022/11/18 03:45:20;;;;;;;1.73;1.30;;;7.90;99.90;;;;;;477163;249;27528;-66
2022/11/18 03:47:21;;;;;;;0.98;0.98;;;7.80;99.90;;;;;;477277;249;28599;-68
2022/11/18 03:49:22;;;;;;;0.90;0.90;;;7.80;99.90;;;;;;477278;249;27587;-65
2022/11/18 03:51:24;;;;;;;1.00;1.00;;;7.80;99.90;;;;;;477256;249;28431;-65
2022/11/18 03:53:25;;;;;;;1.10;1.10;;;7.80;99.90;;;;;;477227;249;27513;-65
2022/11/18 03:55:26;;;;;;;1.20;1.10;;;7.80;99.90;;;;;;477229;249;27564;-65
2022/11/18 03:57:27;;;;;;;1.33;1.23;;;7.70;99.90;;;;;;477277;249;27792;-68
2022/11/18 03:59:29;;;;;;;1.17;1.10;;;7.70;99.90;;;;;;477275;249;28843;-65
2022/11/18 04:01:30;;;;;;;1.60;1.20;;;7.70;99.90;;;;;;477255;249;28490;-67
2022/11/18 04:03:31;;;;;;;1.30;1.10;;;7.70;99.90;;;;;;477245;249;28149;-65
2022/11/18 04:05:32;;;;;;;1.23;1.17;;;7.70;99.90;;;;;;477230;249;28487;-65
2022/11/18 04:07:34;;;;;;;1.10;1.00;;;7.70;99.90;;;;;;477256;249;29346;-68
2022/11/18 04:09:35;;;;;;;1.10;1.10;;;7.70;99.90;;;;;;477254;249;27494;-65
2022/11/18 04:13:56;;;;;;;1.20;1.10;;;7.60;99.90;;;;;;477273;249;27560;-67
2022/11/18 04:15:57;;;;;;;1.07;1.07;;;7.50;99.90;;;;;;477256;249;27496;-66
2022/11/18 04:17:58;;;;;;;0.97;0.93;;;7.50;99.90;;;;;;477244;249;28097;-66
2022/11/18 04:20:00;;;;;;;1.30;1.00;;;7.40;99.90;;;;;;477235;249;28693;-65
2022/11/18 04:22:01;;;;;;;1.10;1.10;;;7.40;99.90;;;;;;477269;249;27780;-65
2022/11/18 04:24:02;;;;;;;1.00;1.00;;;7.40;99.90;;;;;;477267;249;28985;-67
2022/11/18 04:26:03;;;;;;;1.10;1.00;;;7.30;99.90;;;;;;477253;249;27623;-65
2022/11/18 04:28:05;;;;;;;1.00;1.00;;;7.30;99.90;;;;;;477274;249;27564;-66
2022/11/18 04:30:06;;;;;;;1.13;1.10;;;7.30;99.90;;;;;;477230;249;28788;-66
2022/11/18 04:32:07;;;;;;;1.00;1.00;;;7.30;99.90;;;;;;477255;249;29292;-65
2022/11/18 04:34:09;;;;;;;0.90;0.90;;;7.30;99.90;;;;;;477268;249;27685;-66
2022/11/18 04:36:10;;;;;;;0.93;0.93;;;7.20;99.90;;;;;;477247;249;28863;-65
2022/11/18 04:38:11;;;;;;;1.00;1.00;;;7.20;99.90;;;;;;477245;249;28101;-66
2022/11/18 04:40:12;;;;;;;1.00;1.00;;;7.20;99.90;;;;;;477234;249;28106;-68
2022/11/18 04:42:14;;;;;;;1.20;1.10;;;7.20;99.90;;;;;;477249;249;27938;-66
2022/11/18 04:44:15;;;;;;;2.25;1.20;;;7.20;99.90;;;;;;477251;249;27627;-66
2022/11/18 04:46:16;;;;;;;1.30;1.00;;;7.20;99.90;;;;;;477235;249;27580;-66
2022/11/18 04:48:18;;;;;;;1.00;1.00;;;7.10;99.90;;;;;;477248;249;27622;-66
2022/11/18 04:50:19;;;;;;;1.00;1.00;;;7.10;99.90;;;;;;477280;249;27628;-68
2022/11/18 04:52:20;;;;;;;1.00;1.00;;;7.10;99.90;;;;;;477279;249;28115;-65
2022/11/18 04:54:21;;;;;;;0.80;0.80;;;7.10;99.90;;;;;;477267;249;28009;-66
2022/11/18 04:56:22;;;;;;;2.25;1.00;;;7.10;99.90;;;;;;477239;249;28839;-65
2022/11/18 04:58:24;;;;;;;1.00;1.00;;;7.10;99.90;;;;;;477238;249;27603;-65
2022/11/18 05:00:25;;;;;;;0.90;0.90;;;7.10;99.90;;;;;;477278;249;27669;-68
2022/11/18 05:02:26;;;;;;;0.90;0.90;;;7.10;99.90;;;;;;477270;249;27504;-66
2022/11/18 05:04:28;;;;;;;1.00;1.00;;;7.00;99.90;;;;;;477289;249;27577;-67
2022/11/18 05:06:29;;;;;;;2.40;0.90;;;7.00;99.90;;;;;;477213;249;27588;-66
2022/11/18 05:08:30;;;;;;;0.80;0.80;;;7.00;99.90;;;;;;477246;249;29425;-66
2022/11/18 05:10:31;;;;;;;0.85;0.85;;;7.00;99.90;;;;;;477296;249;28230;-69
2022/11/18 05:12:48;;;;;;;1.20;1.10;;;7.00;99.90;;;;;;477276;249;27515;-65
2022/11/18 05:14:49;;;;;;;0.90;0.90;;;7.00;99.90;;;;;;477253;249;27961;-66
2022/11/18 05:16:50;;;;;;;0.90;0.90;;;7.00;99.90;;;;;;477237;249;28090;-65
2022/11/18 05:18:52;;;;;;;1.27;1.17;;;6.90;99.90;;;;;;477289;247;27535;-68
2022/11/18 05:20:53;;;;;;;0.90;0.90;;;6.90;99.90;;;;;;477291;249;27485;-65
2022/11/18 05:22:54;;;;;;;1.08;1.08;;;7.00;99.90;;;;;;477251;247;27644;-66
2022/11/18 05:24:55;;;;;;;0.90;0.90;;;6.90;99.90;;;;;;477219;249;27500;-66
2022/11/18 05:26:57;;;;;;;0.88;0.88;;;6.90;99.90;;;;;;477163;249;27631;-66
2022/11/18 05:28:58;;;;;;;0.90;0.90;;;7.00;99.90;;;;;;477239;249;28167;-68
2022/11/18 05:30:59;;;;;;;0.80;0.80;;;7.00;99.90;;;;;;477263;249;27679;-66
2022/11/18 05:33:00;;;;;;;0.90;0.90;;;6.90;99.90;;;;;;477227;249;27538;-66
2022/11/18 05:35:02;;;;;;;0.90;0.90;;;6.90;99.90;;;;;;477252;249;27553;-66
2022/11/18 05:37:03;;;;;;;1.00;1.00;;;6.90;99.90;;;;;;477230;249;28028;-65
2022/11/18 05:39:04;;;;;;;0.90;0.90;;;6.90;99.90;;;;;;477257;249;28026;-69
2022/11/18 05:41:05;;;;;;;1.08;1.08;;;6.80;99.90;;;;;;477247;249;27594;-66
2022/11/18 05:43:12;;;;;;;1.08;1.08;;;6.90;99.90;;;;;;477225;249;27554;-67
2022/11/18 05:45:14;;;;;;;0.90;0.90;;;6.80;99.90;;;;;;477238;249;27539;-66
2022/11/18 05:47:15;;;;;;;1.00;1.00;;;6.90;99.90;;;;;;477188;249;27569;-65
2022/11/18 05:49:16;;;;;;;0.90;0.90;;;6.90;99.90;;;;;;477207;249;27559;-65
2022/11/18 05:51:17;;;;;;;0.90;0.90;;;6.90;99.90;;;;;;477267;249;27626;-66
2022/11/18 05:53:19;;;;;;;1.00;1.00;;;6.90;99.90;;;;;;477217;249;28861;-68
2022/11/18 05:55:20;;;;;;;0.80;0.80;;;6.80;99.90;;;;;;477223;249;27944;-65
2022/11/18 05:57:21;;;;;;;0.80;0.80;;;6.90;99.90;;;;;;477209;249;27609;-66
2022/11/18 05:59:22;;;;;;;0.98;0.70;;;6.90;99.90;;;;;;477192;249;27535;-65
2022/11/18 06:01:24;;;;;;;0.90;0.90;;;6.80;99.90;;;;;;477272;249;27498;-66
2022/11/18 06:03:25;;;;;;;0.90;0.90;;;6.80;99.90;;;;;;477263;249;27648;-67
2022/11/18 06:05:26;;;;;;;0.80;0.80;;;6.90;99.90;;;;;;477222;249;27589;-66
2022/11/18 06:07:28;;;;;;;1.45;1.00;;;6.80;99.90;;;;;;477236;249;27664;-66
2022/11/18 06:09:29;;;;;;;0.90;0.90;;;6.90;99.90;;;;;;477282;249;27873;-68
2022/11/18 06:11:30;;;;;;;0.90;0.90;;;6.90;99.90;;;;;;477249;249;28063;-65
2022/11/18 06:13:31;;;;;;;1.00;1.00;;;6.90;99.90;;;;;;477244;249;27545;-66
2022/11/18 06:15:33;;;;;;;0.77;0.77;;;6.80;99.90;;;;;;477210;249;27628;-65
2022/11/18 06:17:34;;;;;;;0.90;0.90;;;6.90;99.90;;;;;;477210;249;27562;-65
2022/11/18 06:19:35;;;;;;;0.80;0.80;;;6.90;99.90;;;;;;477269;249;27648;-68
2022/11/18 06:21:36;;;;;;;0.80;0.80;;;6.80;99.90;;;;;;477246;249;28074;-65
2022/11/18 06:23:38;;;;;;;1.80;0.85;;;6.90;99.90;;;;;;477225;249;28022;-66
2022/11/18 06:25:39;;;;;;;0.95;0.95;;;6.80;99.90;;;;;;477322;249;27586;-66
2022/11/18 06:27:40;;;;;;;0.93;0.90;;;6.90;99.90;;;;;;477338;249;27541;-66
2022/11/18 06:29:42;;;;;;;0.95;0.95;;;6.80;99.90;;;;;;477276;249;27550;-68
2022/11/18 06:31:43;;;;;;;1.60;0.80;;;6.90;99.90;;;;;;477231;249;27536;-66
2022/11/18 06:33:44;;;;;;;1.35;1.00;;;6.90;99.90;;;;;;477239;249;27625;-66
2022/11/18 06:35:45;;;;;;;1.00;1.00;;;6.90;99.90;;;;;;477216;249;27600;-66
2022/11/18 06:37:47;;;;;;;0.90;0.90;;;6.90;99.90;;;;;;477246;249;28074;-66
2022/11/18 06:39:48;;;;;;;0.90;0.90;;;6.90;99.90;;;;;;477253;249;27996;-68
2022/11/18 06:41:49;;;;;;;0.90;0.90;;;6.90;99.90;;;;;;477246;247;27600;-66
2022/11/18 06:43:50;;;;;;;0.93;0.93;;;6.90;99.90;;;;;;477215;249;27536;-66
2022/11/18 06:48:11;;;;;;;0.90;0.90;;;6.90;99.90;;;;;;477277;249;27519;-66
2022/11/18 06:50:12;;;;;;;1.20;1.10;;;6.90;99.90;;;;;;477280;249;28143;-68
2022/11/18 06:52:13;;;;;;;0.80;0.80;;;7.00;99.90;;;;;;477249;249;27992;-65
2022/11/18 06:54:15;;;;;;;1.20;1.10;;;7.00;99.90;;;;;;477254;249;27615;-66
2022/11/18 06:56:16;;;;;;;5.05;1.10;;;6.90;99.90;;;;;;477257;249;28838;-65
2022/11/18 06:58:17;;;;;;;1.33;1.23;;;6.90;99.90;;;;;;477303;249;27512;-66
2022/11/18 07:00:18;;;;;;;1.27;1.20;;;6.90;99.90;;;;;;477278;249;27524;-68
2022/11/18 07:02:20;;;;;;;1.30;1.20;;;6.90;99.90;;;;;;477236;249;28858;-66
2022/11/18 07:04:21;;;;;;;1.10;1.10;;;7.00;99.90;;;;;;477226;249;28023;-66
2022/11/18 07:06:22;;;;;;;1.17;1.10;;;6.90;99.90;;;;;;477200;249;29789;-65
2022/11/18 07:08:23;;;;;;;1.05;1.02;;;7.00;99.90;;;;;;477269;249;29175;-66
2022/11/18 07:10:25;;;;;;;1.07;1.07;;;7.00;99.90;;;;;;477268;249;27567;-67
2022/11/18 07:12:26;;;;;;;1.10;1.00;;;7.00;99.90;;;;;;477245;249;28998;-65
2022/11/18 07:14:27;;;;;;;1.10;1.00;;;7.00;99.90;;;;;;477242;249;27598;-66
2022/11/18 07:16:28;;;;;;;1.25;1.10;;;7.10;99.90;;;;;;477244;249;27499;-65
2022/11/18 07:18:30;;;;;;;1.10;1.10;;;7.10;99.90;;;;;;477295;249;27512;-65
2022/11/18 07:20:31;;;;;;;1.05;1.05;;;7.00;99.90;;;;;;477244;249;28093;-67
2022/11/18 07:22:32;;;;;;;1.10;1.10;;;7.00;99.90;;;;;;477022;249;27974;-65
2022/11/18 07:24:34;;;;;;;1.25;1.15;;;7.00;99.90;;;;;;477022;249;27546;-66
2022/11/18 07:26:35;;;;;;;1.80;1.30;;;7.00;99.90;;;;;;477048;249;27533;-66
2022/11/18 07:28:36;;;;;;;1.40;1.30;;;7.10;99.90;;;;;;477134;249;27607;-65
2022/11/18 07:30:37;;;;;;;1.08;1.08;;;7.10;99.90;;;;;;477211;249;28878;-66
2022/11/18 07:32:39;;;;;;;1.27;1.27;;;7.10;99.90;;;;;;477252;249;27591;-64
2022/11/18 07:34:40;;;;;;;1.20;1.10;;;7.10;99.90;;;;;;477242;249;28006;-65
2022/11/18 07:36:42;;;;;;;1.55;1.45;;;7.10;99.90;;;;;;477196;249;29414;-69
2022/11/18 07:38:42;;;;;;;1.40;1.30;;;7.10;99.90;;;;;;477260;249;27548;-65
2022/11/18 07:40:44;;;;;;;1.02;1.02;;;7.10;99.90;;;;;;477258;249;27545;-66
2022/11/18 07:42:45;;;;;;;1.20;1.20;;;7.20;99.90;;;;;;477223;249;27501;-65
2022/11/18 07:44:46;;;;;;;1.17;1.05;;;7.20;99.90;;;;;;477223;249;28863;-65
2022/11/18 07:46:47;;;;;;;1.17;1.17;;;7.20;99.90;;;;;;477263;249;27648;-67
2022/11/18 07:48:49;;;;;;;2.45;1.40;;;7.20;99.90;;;;;;477279;249;27484;-65
2022/11/18 07:50:51;;;;;;;1.45;1.40;;;7.20;99.90;;;;;;477221;249;27993;-65
2022/11/18 07:52:51;;;;;;;1.20;1.15;;;7.20;99.90;;;;;;477195;249;27941;-65
2022/11/18 07:54:52;;;;;;;1.60;1.50;;;7.30;99.90;;;;;;477288;249;27527;-65
2022/11/18 07:56:54;;;;;;;2.20;1.20;;;7.30;99.90;;;;;;477271;249;27544;-68
2022/11/18 07:58:55;;;;;;;1.70;1.55;;;7.30;99.90;;;;;;477253;249;29009;-65
2022/11/18 08:00:56;;;;;;;1.07;1.07;;;7.40;99.90;;;;;;477243;249;27539;-65
2022/11/18 08:02:57;;;;;;;1.30;1.20;;;7.30;99.90;;;;;;477237;249;27728;-65
2022/11/18 08:04:59;;;;;;;1.50;1.40;;;7.40;99.90;;;;;;477228;247;28048;-65
2022/11/18 08:07:00;;;;;;;1.27;1.27;;;7.40;99.90;;;;;;477267;249;28986;-68
2022/11/18 08:09:01;;;;;;;1.20;1.20;;;7.40;99.90;;;;;;477259;249;28972;-66
2022/11/18 08:11:02;;;;;;;1.50;1.40;;;7.40;99.90;;;;;;477263;249;29386;-66
2022/11/18 08:13:04;;;;;;;1.80;1.70;;;7.50;99.90;;;;;;477238;249;29399;-65
2022/11/18 08:15:05;;;;;;;1.40;1.30;;;7.50;99.90;;;;;;477277;249;27860;-66
2022/11/18 08:17:06;;;;;;;1.40;1.30;;;7.60;99.90;;;;;;477279;249;27844;-68
2022/11/18 08:19:07;;;;;;;1.40;1.30;;;7.60;99.90;;;;;;477257;249;27847;-66
2022/11/18 08:21:09;;;;;;;1.30;1.30;;;7.70;99.90;;;;;;477234;249;28224;-65
2022/11/18 08:23:10;;;;;;;1.30;1.20;;;7.70;99.90;;;;;;477253;249;28524;-65
2022/11/18 08:25:11;;;;;;;1.50;1.50;;;7.80;99.90;;;;;;477218;249;27646;-65
2022/11/18 08:27:12;;;;;;;1.50;1.40;;;7.90;99.90;;;;;;477269;249;28663;-67
2022/11/18 08:29:14;;;;;;;1.27;1.27;;;8.00;99.90;;;;;;477259;249;28609;-66
2022/11/18 08:31:15;;;;;;;1.60;1.50;;;7.90;99.90;;;;;;477275;249;28514;-65
2022/11/18 08:33:16;;;;;;;2.30;1.57;;;7.90;99.90;;;;;;477266;249;28524;-65
2022/11/18 08:35:17;;;;;;;1.87;1.77;;;8.00;99.90;;;;;;477263;249;28006;-66
2022/11/18 08:37:19;;;;;;;3.13;1.90;;;7.90;99.90;;;;;;477298;249;27894;-69
2022/11/18 08:39:20;;;;;;;1.70;1.60;;;8.00;99.90;;;;;;477272;249;27944;-65
2022/11/18 08:41:21;;;;;;;2.10;2.00;;;8.00;99.90;;;;;;477242;249;28054;-66
2022/11/18 08:43:22;;;;;;;2.07;1.63;;;8.10;99.90;;;;;;477240;249;27556;-66
2022/11/18 08:45:24;;;;;;;1.70;1.60;;;8.10;99.90;;;;;;477225;249;28253;-66
2022/11/18 08:47:26;;;;;;;3.53;1.70;;;8.10;99.90;;;;;;477286;249;28073;-69
2022/11/18 08:49:27;;;;;;;1.47;1.47;;;8.20;99.90;;;;;;477258;249;28105;-67
2022/11/18 08:51:29;;;;;;;2.00;1.90;;;8.20;99.90;;;;;;477246;249;27963;-66
2022/11/18 08:53:30;;;;;;;2.00;1.90;;;8.30;99.90;;;;;;477238;249;27752;-66
2022/11/18 08:55:31;;;;;;;1.90;1.80;;;8.30;99.90;;;;;;477262;249;29006;-66
2022/11/18 08:57:32;;;;;;;1.77;1.67;;;8.30;99.90;;;;;;477269;249;28330;-66
2022/11/18 08:59:34;;;;;;;2.50;2.10;;;8.30;99.90;;;;;;477266;247;28368;-69
2022/11/18 09:01:35;;;;;;;2.10;2.00;;;8.20;99.90;;;;;;477249;249;28429;-67
2022/11/18 09:03:36;;;;;;;2.40;2.20;;;8.20;99.90;;;;;;477213;249;28499;-66
2022/11/18 09:05:37;;;;;;;3.53;2.30;;;8.20;99.90;;;;;;477242;249;29066;-66
2022/11/18 09:07:39;;;;;;;2.00;1.90;;;8.20;99.90;;;;;;477265;249;27846;-66
2022/11/18 09:09:40;;;;;;;2.50;2.30;;;8.20;99.90;;;;;;477281;249;27994;-67
2022/11/18 09:11:41;;;;;;;3.03;2.57;;;8.30;99.90;;;;;;477264;249;28080;-66
2022/11/18 09:13:42;;;;;;;3.20;2.33;;;8.20;99.90;;;;;;477237;249;27881;-66
2022/11/18 09:15:44;;;;;;;2.50;2.30;;;8.20;99.90;;;;;;477221;249;27602;-66
2022/11/18 09:17:45;;;;;;;2.77;2.57;;;8.30;99.90;;;;;;477276;249;28037;-66
2022/11/18 09:19:46;;;;;;;2.60;2.40;;;8.40;99.90;;;;;;477262;249;27563;-68
2022/11/18 09:21:47;;;;;;;3.40;2.20;;;8.40;99.90;;;;;;477262;249;27746;-66
2022/11/18 09:23:49;;;;;;;3.50;2.20;;;8.40;99.90;;;;;;477242;249;28025;-67
2022/11/18 09:25:50;;;;;;;2.40;2.20;;;8.50;99.90;;;;;;477214;249;27509;-66
2022/11/18 09:27:51;;;;;;;2.50;2.20;;;8.50;99.90;;;;;;477268;249;28084;-66
2022/11/18 09:29:52;;;;;;;2.50;2.20;;;8.50;99.90;;;;;;477278;249;28027;-68
2022/11/18 09:31:54;;;;;;;2.10;2.00;;;8.50;99.90;;;;;;477246;249;27899;-67
2022/11/18 09:33:55;;;;;;;2.10;2.00;;;8.60;99.90;;;;;;477183;249;28058;-66
2022/11/18 09:35:56;;;;;;;2.43;2.00;;;8.60;99.90;;;;;;477040;249;28932;-66
2022/11/18 09:37:57;;;;;;;2.20;2.00;;;8.60;99.90;;;;;;477266;249;28107;-66
2022/11/18 09:39:59;;;;;;;3.37;2.20;;;8.70;99.90;;;;;;477261;249;28457;-68
2022/11/18 09:42:00;;;;;;;2.30;2.10;;;8.60;99.90;;;;;;477251;249;28688;-66
2022/11/18 09:44:01;;;;;;;2.20;2.00;;;8.60;99.90;;;;;;477244;249;28557;-66
2022/11/18 09:46:02;;;;;;;2.93;2.10;;;8.50;99.90;;;;;;477224;249;27989;-66
2022/11/18 09:48:04;;;;;;;2.50;2.07;;;8.60;99.90;;;;;;477253;249;28539;-66
2022/11/18 09:50:05;;;;;;;1.80;1.70;;;8.60;99.90;;;;;;477248;249;27635;-69
2022/11/18 09:52:06;;;;;;;2.80;2.17;;;8.50;99.90;;;;;;477231;249;27837;-66
2022/11/18 09:54:07;;;;;;;2.50;2.20;;;8.50;99.90;;;;;;477227;249;28031;-66
2022/11/18 09:56:09;;;;;;;2.30;2.10;;;8.50;99.90;;;;;;477240;249;27522;-66
2022/11/18 09:58:10;;;;;;;2.43;2.20;;;8.50;99.90;;;;;;477245;249;28071;-66
2022/11/18 10:00:11;;;;;;;2.77;2.30;;;8.50;99.90;;;;;;477241;249;27780;-68
2022/11/18 10:02:12;;;;;;;2.07;1.97;;;8.40;99.90;;;;;;477236;249;27870;-66
2022/11/18 10:04:14;;;;;;;2.00;1.90;;;8.40;99.90;;;;;;477205;249;28125;-66
2022/11/18 10:06:15;;;;;;;2.20;2.10;;;8.40;99.90;;;;;;477253;249;28143;-69
2022/11/18 10:08:16;;;;;;;2.03;1.93;;;8.40;99.90;;;;;;477259;249;27972;-66
2022/11/18 10:10:17;;;;;;;1.83;1.70;;;8.40;99.90;;;;;;477255;249;27715;-68
2022/11/18 10:12:19;;;;;;;2.27;1.73;;;8.40;99.90;;;;;;477230;249;27983;-66
2022/11/18 10:14:20;;;;;;;2.40;2.03;;;8.40;99.90;;;;;;477251;249;28460;-66
2022/11/18 10:16:21;;;;;;;2.20;2.00;;;8.40;99.90;;;;;;477208;249;29258;-66
2022/11/18 10:18:22;;;;;;;3.80;2.10;;;8.50;99.90;;;;;;477253;249;27973;-66
2022/11/18 10:20:24;;;;;;;2.20;1.60;;;8.50;99.90;;;;;;477294;249;27787;-68
2022/11/18 10:22:25;;;;;;;2.80;1.77;;;8.50;99.90;;;;;;477250;249;28208;-66
2022/11/18 10:24:26;;;;;;;1.80;1.40;;;8.50;99.90;;;;;;477207;249;28376;-66
2022/11/18 10:26:27;;;;;;;1.70;1.60;;;8.50;99.90;;;;;;477274;249;29192;-66
2022/11/18 10:28:29;;;;;;;2.40;1.80;;;8.50;99.90;;;;;;477299;249;28633;-66
2022/11/18 10:30:30;;;;;;;1.30;1.20;;;8.60;99.90;;;;;;477272;249;28302;-67
2022/11/18 10:32:31;;;;;;;4.00;1.40;;;8.70;99.90;;;;;;477241;249;28432;-66
2022/11/18 10:34:32;;;;;;;1.50;1.40;;;8.60;99.90;;;;;;477243;249;27674;-67
2022/11/18 10:36:35;;;;;;;3.50;1.53;;;8.70;99.90;;;;;;477221;249;27981;-66
2022/11/18 10:38:35;;;;;;;1.30;1.30;;;8.70;99.90;;;;;;477181;249;27997;-65
2022/11/18 10:40:36;;;;;;;1.73;1.53;;;8.70;99.90;;;;;;477272;249;27981;-69
2022/11/18 10:42:37;;;;;;;1.33;1.20;;;8.70;99.90;;;;;;477264;249;27733;-66
2022/11/18 10:44:39;;;;;;;1.23;1.23;;;8.70;99.90;;;;;;477256;249;27913;-67
2022/11/18 10:46:40;;;;;;;1.63;1.47;;;8.70;99.90;;;;;;477229;249;28154;-66
2022/11/18 10:48:41;;;;;;;1.30;1.30;;;8.70;99.90;;;;;;477283;249;27785;-67